Howland, Ohio
Current Conditions -  °F | °C
As of 3:51 PM on Friday 24 Oct 2014 (Local Time) from KYNG Reporting Station
Scattered Clouds Scattered Clouds  
Wind Chill: 61°   Ceiling: Unl
Heat Index: 61°   Visibility: 10mi
Dew Point: 38°   Wind: 6mph
Humidity: 42%   Direction: 240°WSW
Pressure: 30"   Gusts: NA
Location:  41.234°N, 80.7496°W
Report Text: KYNG 241951Z 24005KT 10SM SCT250 16/03 A3000 RMK AO2 SLP161 T01610033 $
Loading
Personal Weather Stations






























Interactive Weather Map New forecast layout! Learn more

10-Day Weather Forecast

Advertisements
Track Severe Weather on mobile